createdAt,value
2022-11-28T00:01:31.807Z,87.45
2022-11-28T00:03:59.865Z,87.27
2022-11-28T00:06:27.976Z,87.70
2022-11-28T00:08:58.625Z,87.83
2022-11-28T00:11:26.639Z,87.99
2022-11-28T00:13:55.774Z,88.00
2022-11-28T00:16:25.229Z,86.87
2022-11-28T00:18:56.875Z,86.94
2022-11-28T00:21:25.048Z,86.60
2022-11-28T00:23:53.586Z,86.66
2022-11-28T00:26:24.150Z,86.70
2022-11-28T00:28:52.236Z,86.68
2022-11-28T00:31:22.105Z,86.33
2022-11-28T00:33:51.634Z,86.55
2022-11-28T00:36:20.368Z,86.54
2022-11-28T00:38:48.178Z,86.30
2022-11-28T00:41:17.653Z,86.47
2022-11-28T00:43:46.781Z,86.51
2022-11-28T00:46:15.553Z,86.68
2022-11-28T00:48:43.652Z,86.37
2022-11-28T00:51:14.846Z,86.16
2022-11-28T00:53:44.597Z,86.03
2022-11-28T00:56:14.407Z,85.72
2022-11-28T00:58:42.593Z,85.85
2022-11-28T01:01:12.177Z,85.83
2022-11-28T01:03:41.835Z,85.61
2022-11-28T01:06:13.041Z,85.74
2022-11-28T01:08:40.739Z,85.80
2022-11-28T01:11:13.032Z,85.18
2022-11-28T01:13:40.983Z,85.58
2022-11-28T01:16:09.837Z,85.66
2022-11-28T01:18:38.539Z,85.36
2022-11-28T01:21:07.594Z,85.52
2022-11-28T01:23:37.482Z,85.39
2022-11-28T01:26:07.392Z,85.67
2022-11-28T01:28:36.144Z,85.77
2022-11-28T01:31:06.449Z,85.83
2022-11-28T01:33:34.506Z,85.48
2022-11-28T01:36:02.818Z,85.43
2022-11-28T01:38:30.870Z,85.67
2022-11-28T01:40:59.956Z,85.69
2022-11-28T01:43:27.864Z,85.77
2022-11-28T01:45:56.066Z,86.07
2022-11-28T01:48:27.727Z,86.31
2022-11-28T01:51:00.889Z,86.18
2022-11-28T01:53:31.880Z,86.44
2022-11-28T01:56:07.492Z,86.25
2022-11-28T01:58:37.416Z,86.11
2022-11-28T02:01:05.499Z,85.89
2022-11-28T02:03:40.437Z,85.76
2022-11-28T02:06:08.794Z,85.97
2022-11-28T02:08:37.070Z,86.27
2022-11-28T02:11:30.074Z,86.24
2022-11-28T02:14:10.846Z,86.42
2022-11-28T02:16:52.133Z,86.92
2022-11-28T02:19:47.432Z,87.14
2022-11-28T02:22:18.808Z,87.54
2022-11-28T02:25:21.905Z,87.64
2022-11-28T02:28:26.256Z,87.78
2022-11-28T02:31:02.441Z,87.46
2022-11-28T02:33:35.114Z,87.46
2022-11-28T02:36:11.716Z,87.91
2022-11-28T02:38:51.781Z,88.02
2022-11-28T02:41:29.289Z,88.30
2022-11-28T02:44:04.224Z,88.28
2022-11-28T02:46:41.949Z,88.46
2022-11-28T02:49:17.841Z,88.83
2022-11-28T02:51:50.218Z,88.94
2022-11-28T02:54:19.700Z,89.04
2022-11-28T02:56:49.512Z,89.05
2022-11-28T02:59:34.833Z,89.25
2022-11-28T03:02:03.162Z,89.35
2022-11-28T03:04:45.075Z,89.52
2022-11-28T03:07:27.332Z,89.62
2022-11-28T03:10:06.889Z,89.46
2022-11-28T03:12:50.048Z,89.87
2022-11-28T03:15:19.732Z,89.68
2022-11-28T03:17:55.747Z,90.03
2022-11-28T03:20:32.140Z,90.14
2022-11-28T03:23:11.349Z,90.38
2022-11-28T03:25:45.796Z,90.47
2022-11-28T03:28:20.227Z,90.44
2022-11-28T03:30:51.889Z,90.48
2022-11-28T03:33:22.256Z,90.72
2022-11-28T03:35:57.407Z,90.51
2022-11-28T03:38:31.350Z,90.85
2022-11-28T03:41:04.104Z,90.78
2022-11-28T03:43:37.449Z,90.77
2022-11-28T03:46:09.475Z,90.72
2022-11-28T03:48:41.550Z,90.66
2022-11-28T03:51:16.154Z,90.78
2022-11-28T03:53:52.493Z,91.12
2022-11-28T03:56:23.968Z,90.95
2022-11-28T03:58:57.563Z,91.02
2022-11-28T04:01:33.192Z,90.97
2022-11-28T04:04:12.285Z,90.97
2022-11-28T04:06:54.012Z,91.04
2022-11-28T04:09:37.471Z,91.26
2022-11-28T04:12:11.176Z,91.56
2022-11-28T04:14:45.300Z,91.20
2022-11-28T04:17:20.576Z,91.37
2022-11-28T04:19:52.349Z,91.11
2022-11-28T04:22:26.192Z,91.24
2022-11-28T04:24:56.985Z,91.25
2022-11-28T04:27:30.067Z,91.00
2022-11-28T04:30:01.976Z,91.04
2022-11-28T04:32:32.562Z,91.08
2022-11-28T04:35:05.882Z,90.91
2022-11-28T04:37:37.939Z,91.03
2022-11-28T04:40:08.220Z,91.34
2022-11-28T04:42:41.180Z,91.44
2022-11-28T04:45:12.186Z,90.99
2022-11-28T04:47:40.366Z,91.17
2022-11-28T04:50:09.334Z,91.21
2022-11-28T04:52:46.097Z,91.15
2022-11-28T04:55:27.911Z,91.36
2022-11-28T04:58:03.641Z,91.61
2022-11-28T05:00:34.637Z,91.44
2022-11-28T05:03:02.596Z,91.81
2022-11-28T05:05:30.599Z,91.78
2022-11-28T05:08:00.318Z,91.70
2022-11-28T05:10:28.510Z,91.77
2022-11-28T05:12:56.177Z,91.98
2022-11-28T05:15:23.918Z,91.91
2022-11-28T05:17:51.577Z,92.15
2022-11-28T05:20:19.625Z,92.46
2022-11-28T05:22:47.388Z,92.60
2022-11-28T05:25:16.533Z,92.62
2022-11-28T05:27:44.322Z,92.68
2022-11-28T05:30:13.512Z,92.63
2022-11-28T05:32:41.237Z,92.58
2022-11-28T05:35:09.658Z,92.63
2022-11-28T05:37:38.075Z,92.58
2022-11-28T05:40:07.279Z,92.92
2022-11-28T05:42:36.965Z,92.71
2022-11-28T05:45:05.787Z,93.05
2022-11-28T05:47:34.008Z,93.09
2022-11-28T05:50:02.263Z,93.06
2022-11-28T05:52:32.293Z,93.26
2022-11-28T05:55:01.565Z,93.22
2022-11-28T05:57:31.993Z,93.56
2022-11-28T06:00:01.170Z,93.83
2022-11-28T06:02:28.897Z,93.59
2022-11-28T06:04:56.717Z,93.92
2022-11-28T06:07:24.907Z,93.69
2022-11-28T06:09:52.665Z,93.56
2022-11-28T06:12:20.340Z,94.01
2022-11-28T06:14:48.103Z,94.11
2022-11-28T06:17:17.132Z,94.09
2022-11-28T06:19:45.181Z,93.96
2022-11-28T06:22:13.054Z,94.04
2022-11-28T06:24:40.726Z,93.86
2022-11-28T06:27:08.440Z,94.02
2022-11-28T06:29:36.278Z,93.98
2022-11-28T06:32:04.079Z,93.79
2022-11-28T06:34:33.274Z,93.89
2022-11-28T06:37:01.453Z,93.85
2022-11-28T06:39:29.187Z,93.59
2022-11-28T06:41:56.915Z,93.98
2022-11-28T06:44:24.823Z,93.82
2022-11-28T06:46:54.522Z,94.07
2022-11-28T06:49:22.698Z,94.26
2022-11-28T06:51:51.810Z,94.17
2022-11-28T06:54:19.514Z,94.02
2022-11-28T06:56:47.248Z,94.28
2022-11-28T06:59:14.928Z,94.37
2022-11-28T07:01:42.719Z,94.16
2022-11-28T07:04:10.831Z,94.21
2022-11-28T07:06:39.231Z,94.29
2022-11-28T07:09:08.337Z,94.44
2022-11-28T07:11:36.026Z,94.49
2022-11-28T07:14:04.166Z,94.51
2022-11-28T07:16:34.360Z,94.70
2022-11-28T07:19:02.233Z,94.53
2022-11-28T07:21:30.310Z,94.66
2022-11-28T07:23:59.867Z,94.22
2022-11-28T07:26:29.115Z,94.24
2022-11-28T07:28:58.226Z,94.16
2022-11-28T07:31:31.817Z,94.09
2022-11-28T07:34:03.125Z,94.10
2022-11-28T07:36:31.729Z,94.05
2022-11-28T07:39:00.829Z,94.30
2022-11-28T07:41:30.360Z,94.08
2022-11-28T07:43:59.803Z,94.08
2022-11-28T07:46:28.567Z,94.14
2022-11-28T07:48:56.758Z,94.27
2022-11-28T07:51:27.316Z,94.08
2022-11-28T07:53:55.381Z,94.12
2022-11-28T07:56:31.952Z,94.53
2022-11-28T07:59:08.987Z,94.27
2022-11-28T08:01:37.589Z,94.40
2022-11-28T08:04:07.854Z,94.28
2022-11-28T08:06:38.399Z,94.53
2022-11-28T08:09:07.049Z,94.44
2022-11-28T08:11:35.640Z,94.51
2022-11-28T08:14:03.667Z,94.23
2022-11-28T08:16:33.228Z,94.33
2022-11-28T08:19:02.291Z,94.08
2022-11-28T08:21:32.557Z,94.11
2022-11-28T08:24:02.391Z,94.02
2022-11-28T08:26:31.455Z,94.12
2022-11-28T08:28:59.813Z,93.89
2022-11-28T08:31:29.389Z,93.81
2022-11-28T08:34:00.919Z,94.09
2022-11-28T08:36:29.534Z,93.95
2022-11-28T08:39:16.683Z,93.78
2022-11-28T08:41:45.865Z,93.40
2022-11-28T08:44:14.399Z,93.88
2022-11-28T08:46:42.269Z,94.13
2022-11-28T08:49:11.442Z,94.34
2022-11-28T08:51:39.249Z,94.53
2022-11-28T08:54:07.313Z,94.78
2022-11-28T08:56:35.904Z,94.21
2022-11-28T08:59:04.103Z,94.19
2022-11-28T09:01:32.126Z,94.49
2022-11-28T09:04:00.567Z,94.72
2022-11-28T09:06:29.795Z,94.56
2022-11-28T09:08:58.798Z,94.54
2022-11-28T09:11:26.848Z,94.92
2022-11-28T09:13:55.746Z,94.99
2022-11-28T09:16:23.892Z,95.07
2022-11-28T09:18:52.446Z,94.93
2022-11-28T09:21:20.193Z,95.03
2022-11-28T09:23:49.396Z,95.14
2022-11-28T09:26:19.526Z,95.04
2022-11-28T09:28:47.751Z,94.53
2022-11-28T09:31:17.944Z,94.34
2022-11-28T09:33:46.872Z,94.82
2022-11-28T09:36:16.905Z,94.78
2022-11-28T09:38:45.845Z,94.85
2022-11-28T09:41:44.511Z,95.01
2022-11-28T09:44:22.113Z,95.25
2022-11-28T09:46:52.614Z,95.22
2022-11-28T09:49:39.889Z,95.16
2022-11-28T09:52:21.616Z,95.27
2022-11-28T09:54:59.628Z,95.79
2022-11-28T09:57:35.675Z,95.75
2022-11-28T10:00:04.867Z,96.22
2022-11-28T10:02:38.894Z,96.80
2022-11-28T10:05:17.397Z,97.76
2022-11-28T10:07:57.988Z,97.64
2022-11-28T10:10:33.942Z,97.38
2022-11-28T10:13:12.414Z,97.42
2022-11-28T10:15:49.536Z,97.48
2022-11-28T10:18:36.150Z,97.25
2022-11-28T10:21:18.630Z,97.88
2022-11-28T10:23:49.195Z,97.50
2022-11-28T10:26:23.555Z,97.80
2022-11-28T10:28:56.627Z,97.14
2022-11-28T10:31:32.875Z,97.23
2022-11-28T10:34:08.278Z,97.07
2022-11-28T10:36:56.853Z,96.51
2022-11-28T10:39:26.392Z,96.90
2022-11-28T10:42:14.549Z,96.91
2022-11-28T10:44:59.418Z,97.11
2022-11-28T10:47:50.548Z,97.79
2022-11-28T10:50:32.063Z,99.16
2022-11-28T10:53:03.201Z,100.00
2022-11-28T10:55:41.554Z,100.00
2022-11-28T10:58:16.953Z,100.00
2022-11-28T11:00:49.441Z,100.00
2022-11-28T11:03:27.952Z,100.00
2022-11-28T11:05:55.724Z,100.00
2022-11-28T11:08:25.583Z,100.00
2022-11-28T11:11:01.217Z,100.00
2022-11-28T11:13:30.678Z,100.00
2022-11-28T11:16:03.559Z,100.00
2022-11-28T11:18:32.340Z,100.00
2022-11-28T11:21:17.234Z,100.00
2022-11-28T11:23:46.058Z,100.00
2022-11-28T11:26:23.293Z,100.00
2022-11-28T11:28:52.051Z,100.00
2022-11-28T11:31:24.152Z,100.00
2022-11-28T11:33:54.697Z,100.00
2022-11-28T11:36:30.750Z,100.00
2022-11-28T11:39:25.587Z,100.00
2022-11-28T11:42:11.493Z,100.00
2022-11-28T11:44:39.420Z,100.00
2022-11-28T11:47:10.998Z,100.00
2022-11-28T11:49:41.413Z,100.00
2022-11-28T11:52:19.079Z,100.00
2022-11-28T11:55:02.247Z,100.00
2022-11-28T11:57:35.102Z,100.00
2022-11-28T12:00:06.948Z,100.00
2022-11-28T12:02:39.750Z,100.00
2022-11-28T12:05:13.800Z,100.00
2022-11-28T12:07:55.153Z,100.00
2022-11-28T12:10:26.742Z,100.00
2022-11-28T12:12:54.758Z,100.00
2022-11-28T12:15:32.813Z,100.00
2022-11-28T12:18:17.772Z,100.00
2022-11-28T12:21:01.408Z,100.00
2022-11-28T12:23:41.815Z,100.00
2022-11-28T12:26:16.851Z,100.00
2022-11-28T12:29:00.225Z,100.00
2022-11-28T12:31:37.120Z,100.00
2022-11-28T12:34:19.193Z,100.00
2022-11-28T12:36:56.821Z,100.00
2022-11-28T12:39:37.734Z,100.00
2022-11-28T12:42:27.713Z,100.00
2022-11-28T12:45:19.873Z,100.00
2022-11-28T12:47:56.073Z,100.00
2022-11-28T12:50:33.920Z,100.00
2022-11-28T12:53:23.829Z,100.00
2022-11-28T12:56:01.168Z,100.00
2022-11-28T12:58:34.149Z,100.00
2022-11-28T13:01:06.670Z,100.00
2022-11-28T13:03:42.233Z,100.00
2022-11-28T13:06:24.746Z,100.00
2022-11-28T13:09:12.165Z,100.00
2022-11-28T13:11:52.285Z,100.00
2022-11-28T13:14:30.824Z,100.00
2022-11-28T13:17:12.543Z,100.00
2022-11-28T13:19:51.191Z,100.00
2022-11-28T13:22:25.273Z,100.00
2022-11-28T13:25:01.836Z,100.00
2022-11-28T13:27:38.021Z,100.00
2022-11-28T13:30:18.164Z,100.00
2022-11-28T13:32:52.930Z,100.00
2022-11-28T13:35:21.309Z,100.00
2022-11-28T13:40:50.225Z,100.00
2022-11-28T13:43:26.320Z,100.00
2022-11-28T13:45:54.815Z,100.00
2022-11-28T13:49:19.702Z,100.00
2022-11-28T13:51:48.833Z,100.00
2022-11-28T13:54:46.165Z,100.00
2022-11-28T13:57:37.523Z,100.00
2022-11-28T14:00:21.579Z,100.00
2022-11-28T14:02:52.366Z,100.00
2022-11-28T14:05:30.135Z,100.00
2022-11-28T14:07:58.826Z,100.00
2022-11-28T14:10:40.652Z,100.00
2022-11-28T14:13:45.986Z,100.00
2022-11-28T14:16:25.197Z,100.00
2022-11-28T14:19:05.966Z,100.00
2022-11-28T14:21:46.036Z,100.00
2022-11-28T14:24:22.170Z,100.00
2022-11-28T14:26:59.352Z,100.00
2022-11-28T14:29:35.216Z,100.00
2022-11-28T14:34:51.449Z,100.00
2022-11-28T14:37:53.063Z,100.00
2022-11-28T14:41:06.803Z,100.00
2022-11-28T14:43:38.139Z,100.00
2022-11-28T14:46:33.754Z,100.00
2022-11-28T14:49:25.536Z,100.00
2022-11-28T14:52:30.951Z,100.00
2022-11-28T14:54:55.847Z,100.00
2022-11-28T14:57:26.326Z,100.00
2022-11-28T14:59:57.872Z,100.00
2022-11-28T15:02:40.165Z,100.00
2022-11-28T15:05:35.017Z,100.00
2022-11-28T15:08:21.674Z,100.00
2022-11-28T15:10:55.028Z,100.00
2022-11-28T15:13:36.365Z,100.00
2022-11-28T15:16:07.112Z,100.00
2022-11-28T15:18:36.385Z,100.00
2022-11-28T15:21:08.362Z,100.00
2022-11-28T15:23:38.488Z,100.00
2022-11-28T15:26:06.975Z,100.00
2022-11-28T15:28:36.114Z,100.00
2022-11-28T15:31:06.249Z,100.00
2022-11-28T15:33:34.598Z,100.00
2022-11-28T15:36:12.413Z,100.00
2022-11-28T15:38:43.089Z,100.00
2022-11-28T15:41:11.138Z,100.00
2022-11-28T15:43:43.142Z,100.00
2022-11-28T15:46:19.168Z,100.00
2022-11-28T15:48:51.104Z,100.00
2022-11-28T15:51:27.524Z,100.00
2022-11-28T15:53:56.252Z,100.00
2022-11-28T15:56:24.416Z,100.00
2022-11-28T15:58:52.753Z,100.00
2022-11-28T16:01:23.543Z,100.00
2022-11-28T16:03:57.779Z,100.00
2022-11-28T16:06:29.739Z,100.00
2022-11-28T16:09:00.593Z,100.00
2022-11-28T16:11:31.674Z,100.00
2022-11-28T16:14:02.137Z,100.00
2022-11-28T16:16:35.493Z,100.00
2022-11-28T16:19:06.651Z,100.00
2022-11-28T16:21:37.638Z,100.00
2022-11-28T16:24:18.451Z,100.00
2022-11-28T16:26:56.167Z,100.00
2022-11-28T16:29:26.674Z,100.00
2022-11-28T16:32:07.449Z,100.00
2022-11-28T16:34:45.885Z,100.00
2022-11-28T16:37:14.117Z,100.00
2022-11-28T16:39:42.415Z,100.00
2022-11-28T16:42:16.530Z,100.00
2022-11-28T16:44:45.330Z,100.00
2022-11-28T16:47:29.865Z,100.00
2022-11-28T16:50:16.208Z,100.00
2022-11-28T16:52:51.709Z,100.00
2022-11-28T16:55:39.055Z,100.00
2022-11-28T16:58:13.067Z,100.00
2022-11-28T17:00:43.440Z,100.00
2022-11-28T17:03:42.660Z,100.00
2022-11-28T17:06:16.948Z,100.00
2022-11-28T17:08:45.068Z,100.00
2022-11-28T17:11:14.149Z,100.00
2022-11-28T17:13:42.039Z,100.00
2022-11-28T17:16:16.487Z,100.00
2022-11-28T17:18:45.932Z,100.00
2022-11-28T17:21:14.821Z,100.00
2022-11-28T17:23:43.225Z,100.00
2022-11-28T17:26:11.712Z,100.00
2022-11-28T17:28:40.016Z,100.00
2022-11-28T17:31:08.127Z,100.00
2022-11-28T17:33:39.420Z,100.00
2022-11-28T17:36:12.898Z,100.00
2022-11-28T17:38:40.596Z,100.00
2022-11-28T17:41:13.429Z,100.00
2022-11-28T17:43:41.610Z,100.00
2022-11-28T17:46:09.329Z,100.00
2022-11-28T17:48:37.598Z,100.00
2022-11-28T17:51:06.075Z,100.00
2022-11-28T17:53:35.216Z,100.00
2022-11-28T17:56:03.336Z,100.00
2022-11-28T17:58:31.409Z,100.00
2022-11-28T18:01:00.995Z,100.00
2022-11-28T18:03:29.140Z,100.00
2022-11-28T18:05:56.941Z,100.00
2022-11-28T18:08:24.649Z,100.00
2022-11-28T18:11:04.283Z,100.00
2022-11-28T18:13:32.273Z,100.00
2022-11-28T18:16:00.103Z,100.00
2022-11-28T18:18:28.126Z,100.00
2022-11-28T18:20:55.861Z,100.00
2022-11-28T18:23:23.633Z,100.00
2022-11-28T18:25:51.421Z,100.00
2022-11-28T18:28:22.433Z,100.00
2022-11-28T18:30:50.950Z,100.00
2022-11-28T18:33:18.715Z,100.00
2022-11-28T18:35:46.470Z,100.00
2022-11-28T18:38:14.169Z,100.00
2022-11-28T18:40:41.893Z,100.00
2022-11-28T18:43:09.785Z,100.00
2022-11-28T18:45:39.067Z,100.00
2022-11-28T18:48:06.960Z,100.00
2022-11-28T18:50:36.067Z,100.00
2022-11-28T18:53:03.859Z,100.00
2022-11-28T18:55:31.683Z,100.00
2022-11-28T18:57:59.899Z,100.00
2022-11-28T19:00:27.815Z,100.00
2022-11-28T19:02:56.986Z,100.00
2022-11-28T19:05:24.703Z,100.00
2022-11-28T19:07:52.576Z,100.00
2022-11-28T19:10:20.377Z,100.00
2022-11-28T19:12:48.209Z,100.00
2022-11-28T19:15:16.551Z,100.00
2022-11-28T19:17:44.265Z,100.00
2022-11-28T19:20:14.215Z,100.00
2022-11-28T19:22:42.193Z,100.00
2022-11-28T19:25:10.246Z,100.00
2022-11-28T19:27:38.459Z,100.00
2022-11-28T19:30:07.497Z,100.00
2022-11-28T19:32:36.301Z,100.00
2022-11-28T19:35:04.251Z,100.00
2022-11-28T19:37:33.367Z,100.00
2022-11-28T19:40:02.734Z,100.00
2022-11-28T19:42:31.042Z,100.00
2022-11-28T19:44:58.834Z,100.00
2022-11-28T19:47:26.613Z,100.00
2022-11-28T19:49:54.412Z,100.00
2022-11-28T19:52:22.148Z,100.00
2022-11-28T19:54:51.342Z,100.00
2022-11-28T19:57:20.755Z,100.00
2022-11-28T19:59:48.919Z,100.00
2022-11-28T20:02:17.603Z,100.00
2022-11-28T20:04:45.477Z,100.00
2022-11-28T20:07:13.883Z,100.00
2022-11-28T20:09:41.900Z,100.00
2022-11-28T20:12:11.679Z,100.00
2022-11-28T20:14:39.520Z,100.00
2022-11-28T20:17:07.349Z,100.00
2022-11-28T20:19:35.162Z,100.00
2022-11-28T20:22:02.963Z,100.00
2022-11-28T20:24:30.677Z,100.00
2022-11-28T20:26:58.420Z,100.00
2022-11-28T20:29:27.997Z,100.00
2022-11-28T20:31:57.302Z,100.00
2022-11-28T20:34:25.583Z,100.00
2022-11-28T20:36:53.792Z,100.00
2022-11-28T20:39:22.253Z,100.00
2022-11-28T20:41:50.005Z,100.00
2022-11-28T20:44:18.332Z,100.00
2022-11-28T20:46:49.534Z,100.00
2022-11-28T20:49:17.817Z,100.00
2022-11-28T20:51:45.880Z,100.00
2022-11-28T20:54:14.496Z,100.00
2022-11-28T20:57:20.194Z,100.00
2022-11-28T20:59:31.104Z,100.00
2022-11-28T21:02:00.444Z,100.00
2022-11-28T21:04:28.234Z,100.00
2022-11-28T21:06:56.024Z,100.00
2022-11-28T21:09:23.825Z,100.00
2022-11-28T21:11:57.512Z,100.00
2022-11-28T21:14:26.462Z,100.00
2022-11-28T21:16:54.272Z,100.00
2022-11-28T21:19:23.466Z,100.00
2022-11-28T21:21:51.668Z,100.00
2022-11-28T21:24:19.422Z,100.00
2022-11-28T21:26:53.112Z,100.00
2022-11-28T21:29:23.027Z,100.00
2022-11-28T21:31:50.892Z,100.00
2022-11-28T21:34:19.199Z,100.00
2022-11-28T21:36:48.499Z,100.00
2022-11-28T21:39:18.717Z,100.00
2022-11-28T21:41:46.678Z,100.00
2022-11-28T21:44:14.444Z,100.00
2022-11-28T21:46:42.596Z,100.00
2022-11-28T21:49:10.379Z,100.00
2022-11-28T21:51:38.217Z,100.00
2022-11-28T21:54:07.499Z,100.00
2022-11-28T21:56:35.226Z,100.00
2022-11-28T21:59:02.967Z,100.00
2022-11-28T22:01:31.121Z,100.00
2022-11-28T22:04:02.703Z,100.00
2022-11-28T22:06:31.213Z,100.00
2022-11-28T22:08:59.424Z,100.00
2022-11-28T22:11:29.055Z,100.00
2022-11-28T22:13:56.702Z,100.00
2022-11-28T22:16:26.596Z,100.00
2022-11-28T22:18:56.141Z,100.00
2022-11-28T22:24:12.172Z,100.00
2022-11-28T22:26:41.326Z,100.00
2022-11-28T22:29:09.159Z,100.00
2022-11-28T22:31:37.008Z,100.00
2022-11-28T22:34:04.829Z,100.00
2022-11-28T22:36:34.289Z,100.00
2022-11-28T22:39:02.720Z,100.00
2022-11-28T22:41:30.623Z,100.00
2022-11-28T22:44:01.403Z,100.00
2022-11-28T22:46:30.057Z,100.00
2022-11-28T22:48:59.535Z,100.00
2022-11-28T22:51:28.072Z,100.00
2022-11-28T22:53:57.430Z,100.00
2022-11-28T22:56:25.593Z,100.00
2022-11-28T22:58:53.300Z,100.00
2022-11-28T23:01:24.115Z,100.00
2022-11-28T23:03:52.547Z,100.00
2022-11-28T23:06:22.276Z,100.00
2022-11-28T23:08:50.839Z,100.00
2022-11-28T23:11:21.315Z,100.00
2022-11-28T23:13:49.830Z,100.00
2022-11-28T23:16:19.273Z,100.00
2022-11-28T23:18:50.389Z,100.00
2022-11-28T23:21:19.911Z,100.00
2022-11-28T23:23:47.633Z,100.00
2022-11-28T23:26:17.550Z,100.00
2022-11-28T23:28:46.375Z,100.00
2022-11-28T23:31:17.073Z,100.00
2022-11-28T23:33:45.239Z,100.00
2022-11-28T23:36:19.069Z,100.00
2022-11-28T23:38:48.371Z,100.00
2022-11-28T23:41:16.349Z,100.00
2022-11-28T23:43:44.302Z,100.00
2022-11-28T23:46:13.934Z,100.00
2022-11-28T23:48:43.622Z,100.00
2022-11-28T23:51:12.780Z,100.00
2022-11-28T23:53:43.071Z,100.00
2022-11-28T23:56:13.512Z,100.00
2022-11-28T23:58:41.912Z,100.00
